Etusivu
METAR-TAF:

Lentoasemat :

Kittilä, Suomi

Kittilän lentoasema

Leveyspiiri: 67-42N, Pituuspiiri: 024-51E, korkeus merenpinnasta: 196 m

Tämänhetkinen sää

Tämä raportti tehtiin 36 minuuttia sitten, kello 02.50 UTC
Tuuli 4 kn pohjoisesta, vaihdellen luoteen ja idän/koillisen välillä
Lämpötila 14°C
Kosteus 94%
Ilmanpaine 1005 hPa
Näkyvyys 10 km tai enemmän
Hajonneita pilviä 2800 ft:n korkeudessa

METAR: EFKT 310250Z AUTO 01004KT 310V070 9999 BKN028 14/13 Q1005

Aika: 06:26 (03:26 UTC)

Sääennuste

Tämä raportti tehtiin 54 minuuttia sitten, kello 02.32 UTC
Ennuste voimassa 31. päivästä klo 03 UTC - 31. päivään klo 10 UTC
Tuuli 4 kn koillisesta
Näkyvyys 10 km tai enemmän
Hajonneita pilviä 4000 ft:n korkeudessa
Tulossa
31. päivästä klo 07 UTC - 31. päivään klo 09 UTC
Hajonneita pilviä 1200 ft:n korkeudessa

TAF: EFKT 310232Z 3103/3110 04004KT 9999 BKN040 BECMG 3107/3109 BKN012

METAR-TAF

Säähavainnot ja -ennusteet yli 4000 lentoasemalta (METAR- ja TAF-raportit).

Käytössä olevat sääasemat on merkitty karttaan keltaisilla ja punaisilla pisteillä.

Aseta hiiri pisteen päälle nähdäksesi sääaseman nimen.

Klikkaa sitten nähdäksesi säähavainnot ja -ennusteet.

Kartan vaihtaminen: klikkaa mustalla rastilla varustettuja vihreitä pisteitä, niin voit zoomata sisään; viivalla varustettua vihreää pistettä, niin voit zoomata ulos tai vihreitä nuolia, niin pääset viereisille kartoille.


METAR-TAF: